Time;durP1;ratioP1;P1;durP2;ratioP2;P2;SDS_P1;SDS_P2;PMS_P1;PMS_P2;Temp;Humidity;BMP_temperature;BMP_pressure;BME280_temperature;BME280_humidity;BME280_pressure;Samples;Min_cycle;Max_cycle;Signal;HPM_P1;HPM_P2
2021/05/21 00:00:21;;;;;;;2.28;1.20;;;13.70;89.30;;;;;;5088474;28;20110;-72
2021/05/21 00:02:46;;;;;;;2.65;1.50;;;13.80;88.50;;;;;;5088248;28;20082;-73
2021/05/21 00:05:12;;;;;;;2.40;1.60;;;13.70;89.30;;;;;;5089263;28;20031;-73
2021/05/21 00:07:37;;;;;;;1.60;1.33;;;13.70;89.40;;;;;;5086923;28;20508;-72
2021/05/21 00:10:04;;;;;;;2.28;1.33;;;13.80;88.40;;;;;;5088637;28;20123;-73
2021/05/21 00:12:29;;;;;;;3.45;2.08;;;13.70;90.00;;;;;;5088454;28;20111;-73
2021/05/21 00:14:55;;;;;;;4.90;1.58;;;13.70;89.30;;;;;;5087932;28;20134;-73
2021/05/21 00:17:20;;;;;;;2.30;1.40;;;13.80;88.90;;;;;;5089722;28;20510;-73
2021/05/21 00:19:45;;;;;;;2.78;1.65;;;13.70;88.80;;;;;;5088592;28;20439;-72
2021/05/21 00:22:11;;;;;;;1.70;1.38;;;13.80;87.90;;;;;;5088879;28;20028;-73
2021/05/21 00:24:36;;;;;;;2.33;1.70;;;13.70;88.90;;;;;;5087582;28;20065;-73
2021/05/21 00:27:02;;;;;;;1.38;1.08;;;13.80;88.10;;;;;;5087655;28;20490;-72
2021/05/21 00:29:28;;;;;;;1.70;1.40;;;13.80;90.20;;;;;;5088880;28;20063;-73
2021/05/21 00:31:53;;;;;;;2.65;1.50;;;13.70;88.60;;;;;;5088473;28;20437;-72
2021/05/21 00:34:19;;;;;;;1.08;1.05;;;13.70;90.30;;;;;;5087950;28;20035;-73
2021/05/21 00:36:44;;;;;;;2.03;1.45;;;13.70;89.50;;;;;;5086362;28;20016;-73
2021/05/21 00:39:10;;;;;;;1.85;1.45;;;13.80;88.70;;;;;;5087739;28;20117;-73
2021/05/21 00:41:35;;;;;;;2.35;1.58;;;13.80;88.10;;;;;;5087107;28;20028;-73
2021/05/21 00:44:01;;;;;;;1.38;1.20;;;13.80;88.30;;;;;;5089346;28;20482;-73
2021/05/21 00:46:26;;;;;;;4.25;2.35;;;13.80;88.60;;;;;;5086422;28;20035;-73
2021/05/21 00:48:52;;;;;;;2.10;1.40;;;13.80;87.50;;;;;;5083013;28;20020;-74
2021/05/21 00:51:17;;;;;;;3.20;1.70;;;13.90;87.70;;;;;;5080690;28;20024;-73
2021/05/21 00:53:44;;;;;;;1.67;1.35;;;13.80;87.70;;;;;;5087539;28;20601;-73
2021/05/21 00:56:10;;;;;;;3.08;1.80;;;13.80;88.10;;;;;;5087736;28;20115;-74
2021/05/21 00:58:36;;;;;;;5.93;1.52;;;13.80;90.30;;;;;;5087957;28;20150;-73
2021/05/21 01:01:03;;;;;;;1.95;1.67;;;13.80;90.10;;;;;;5087798;28;20028;-73
2021/05/21 01:03:28;;;;;;;3.78;1.70;;;13.70;89.70;;;;;;5082671;28;20047;-73
2021/05/21 01:05:54;;;;;;;2.00;1.58;;;13.70;90.80;;;;;;5086464;28;20482;-73
2021/05/21 01:08:19;;;;;;;2.58;1.60;;;13.70;90.70;;;;;;5085685;28;20028;-73
2021/05/21 01:10:45;;;;;;;3.75;1.42;;;13.60;90.80;;;;;;5087173;28;20107;-73
2021/05/21 01:13:11;;;;;;;2.97;1.60;;;13.60;90.90;;;;;;5087578;28;20024;-73
2021/05/21 01:15:38;;;;;;;1.92;1.60;;;13.60;91.30;;;;;;5087197;28;20026;-73
2021/05/21 01:18:06;;;;;;;1.55;1.45;;;13.50;91.50;;;;;;5086294;28;20036;-73
2021/05/21 01:20:32;;;;;;;1.92;1.42;;;13.40;92.30;;;;;;5087831;28;20036;-73
2021/05/21 01:22:59;;;;;;;2.42;1.27;;;13.40;91.90;;;;;;5087574;28;20063;-73
2021/05/21 01:25:25;;;;;;;5.85;1.60;;;13.40;92.30;;;;;;5086593;28;20028;-74
2021/05/21 01:27:51;;;;;;;2.40;1.73;;;13.40;92.40;;;;;;5086375;28;20842;-73
2021/05/21 01:30:17;;;;;;;1.75;1.35;;;13.40;92.50;;;;;;5087804;28;20093;-73
2021/05/21 01:32:46;;;;;;;3.78;1.88;;;13.40;92.30;;;;;;5088228;28;20028;-73
2021/05/21 01:35:14;;;;;;;1.58;1.48;;;13.40;91.60;;;;;;5086287;28;20024;-74
2021/05/21 01:37:43;;;;;;;2.67;1.63;;;13.40;91.50;;;;;;5088046;28;20055;-73
2021/05/21 01:40:09;;;;;;;3.22;1.67;;;13.40;91.40;;;;;;5085839;28;20103;-73
2021/05/21 01:42:35;;;;;;;1.70;1.45;;;13.40;92.10;;;;;;5087096;28;20048;-73
2021/05/21 01:45:02;;;;;;;3.13;1.95;;;13.40;91.70;;;;;;5087111;28;20047;-73
2021/05/21 01:47:28;;;;;;;2.53;1.45;;;13.40;92.40;;;;;;5079408;28;20436;-73
2021/05/21 01:49:53;;;;;;;2.20;1.60;;;13.30;92.60;;;;;;5086875;28;20028;-73
2021/05/21 01:52:18;;;;;;;3.28;1.60;;;13.30;92.50;;;;;;5086123;28;20066;-73
2021/05/21 01:54:46;;;;;;;8.25;1.50;;;13.30;92.60;;;;;;5085711;28;20146;-73
2021/05/21 01:57:14;;;;;;;1.73;1.50;;;13.20;93.70;;;;;;5086484;28;20044;-73
2021/05/21 01:59:40;;;;;;;2.35;1.40;;;13.20;93.50;;;;;;5086410;28;20024;-73
2021/05/21 02:02:06;;;;;;;2.65;1.70;;;13.20;93.60;;;;;;5085870;28;20130;-73
2021/05/21 02:04:35;;;;;;;3.33;2.35;;;13.10;94.30;;;;;;5087319;28;20066;-73
2021/05/21 02:07:00;;;;;;;3.45;1.90;;;13.10;93.80;;;;;;5077108;28;20028;-73
2021/05/21 02:09:27;;;;;;;2.10;1.90;;;13.20;94.00;;;;;;5086142;28;20012;-73
2021/05/21 02:11:53;;;;;;;2.58;1.67;;;13.20;94.30;;;;;;5088844;28;20043;-73
2021/05/21 02:14:18;;;;;;;2.55;2.10;;;13.10;94.70;;;;;;5086195;28;20016;-73
2021/05/21 02:16:44;;;;;;;2.50;1.60;;;13.20;94.60;;;;;;5086409;28;20552;-73
2021/05/21 02:19:09;;;;;;;5.05;1.85;;;13.20;94.30;;;;;;5085392;28;20020;-73
2021/05/21 02:21:36;;;;;;;2.42;1.77;;;13.20;94.50;;;;;;5087913;28;20032;-73
2021/05/21 02:24:05;;;;;;;2.17;1.70;;;13.10;94.40;;;;;;5085352;28;20038;-73
2021/05/21 02:26:33;;;;;;;1.80;1.40;;;13.20;95.20;;;;;;5086933;28;20100;-73
2021/05/21 02:28:58;;;;;;;3.38;1.85;;;13.20;95.20;;;;;;5087098;28;20016;-73
2021/05/21 02:31:24;;;;;;;2.08;1.50;;;13.20;94.90;;;;;;5089047;28;20021;-74
2021/05/21 02:33:50;;;;;;;2.45;1.92;;;13.20;95.00;;;;;;5088273;28;20490;-73
2021/05/21 02:36:15;;;;;;;3.17;1.90;;;13.20;95.50;;;;;;5091814;28;20032;-73
2021/05/21 02:38:41;;;;;;;4.78;1.98;;;13.20;94.90;;;;;;5089553;28;20085;-74
2021/05/21 02:41:06;;;;;;;5.43;1.90;;;13.20;95.10;;;;;;5090525;28;20070;-73
2021/05/21 02:43:32;;;;;;;13.52;1.70;;;13.20;95.30;;;;;;5090211;28;20028;-73
2021/05/21 02:45:58;;;;;;;1.90;1.48;;;13.20;95.50;;;;;;5091509;28;20034;-73
2021/05/21 02:48:23;;;;;;;3.10;2.10;;;13.20;95.60;;;;;;5084426;28;20047;-73
2021/05/21 02:50:49;;;;;;;2.58;1.70;;;13.20;95.90;;;;;;5089703;28;20024;-73
2021/05/21 02:53:14;;;;;;;1.83;1.60;;;13.20;96.20;;;;;;5088484;28;20048;-73
2021/05/21 02:55:40;;;;;;;2.20;1.60;;;13.10;96.10;;;;;;5091801;28;20482;-72
2021/05/21 02:58:05;;;;;;;1.98;1.70;;;13.10;96.30;;;;;;5090008;28;20065;-73
2021/05/21 03:00:31;;;;;;;2.28;1.98;;;13.00;96.70;;;;;;5088130;28;20158;-73
2021/05/21 03:02:57;;;;;;;2.10;1.67;;;13.00;96.60;;;;;;5090924;28;20027;-73
2021/05/21 03:05:22;;;;;;;3.92;1.77;;;13.00;96.60;;;;;;5091137;28;20047;-72
2021/05/21 03:07:53;;;;;;;7.18;1.92;;;13.00;96.90;;;;;;5089337;28;20020;-73
2021/05/21 03:10:26;;;;;;;2.47;1.77;;;12.90;97.30;;;;;;5089682;28;20411;-73
2021/05/21 03:12:52;;;;;;;2.65;1.90;;;12.90;97.80;;;;;;5089455;28;20024;-73
2021/05/21 03:15:19;;;;;;;2.72;1.70;;;12.90;97.90;;;;;;5089113;28;20525;-73
2021/05/21 03:17:45;;;;;;;1.58;1.48;;;12.80;98.00;;;;;;5087315;28;20042;-73
2021/05/21 03:20:11;;;;;;;2.78;1.63;;;12.90;97.80;;;;;;5090561;28;20020;-73
2021/05/21 03:22:37;;;;;;;3.28;1.58;;;12.80;98.40;;;;;;5089644;28;20024;-73
2021/05/21 03:25:04;;;;;;;2.25;1.67;;;12.80;98.60;;;;;;5090570;28;20062;-73
2021/05/21 03:27:31;;;;;;;3.13;1.70;;;12.80;98.40;;;;;;5088660;28;20091;-73
2021/05/21 03:29:57;;;;;;;3.05;1.77;;;12.90;98.20;;;;;;5089399;28;20032;-73
2021/05/21 03:32:23;;;;;;;2.88;1.80;;;12.90;98.60;;;;;;5089472;28;20081;-73
2021/05/21 03:34:49;;;;;;;4.03;2.03;;;12.80;98.70;;;;;;5089596;28;20417;-73
2021/05/21 03:37:14;;;;;;;2.33;1.70;;;12.80;99.20;;;;;;5087950;28;20020;-73
2021/05/21 03:39:40;;;;;;;3.92;1.63;;;12.80;99.20;;;;;;5089332;28;20051;-74
2021/05/21 03:42:06;;;;;;;2.42;1.58;;;12.80;98.90;;;;;;5087313;28;20107;-74
2021/05/21 03:44:32;;;;;;;2.30;1.73;;;12.90;98.60;;;;;;5089939;28;20509;-73
2021/05/21 03:47:01;;;;;;;2.25;1.70;;;12.90;98.90;;;;;;5088970;28;20024;-73
2021/05/21 03:49:26;;;;;;;2.60;1.55;;;13.00;98.50;;;;;;5088072;28;20036;-74
2021/05/21 03:51:53;;;;;;;2.13;1.50;;;13.00;98.90;;;;;;5086997;28;20108;-73
2021/05/21 03:54:18;;;;;;;3.10;1.80;;;13.00;98.00;;;;;;5088824;28;20043;-74
2021/05/21 03:56:44;;;;;;;3.13;1.60;;;13.10;97.80;;;;;;5088944;28;20020;-73
2021/05/21 03:59:10;;;;;;;2.60;1.60;;;13.10;97.90;;;;;;5088715;28;20112;-73
2021/05/21 04:01:35;;;;;;;2.75;1.45;;;13.10;98.00;;;;;;5086336;28;20066;-73
2021/05/21 04:04:01;;;;;;;2.17;1.67;;;13.10;98.20;;;;;;5088951;28;20540;-73
2021/05/21 04:06:32;;;;;;;2.50;1.48;;;13.10;97.50;;;;;;5087556;28;20051;-73
2021/05/21 04:08:59;;;;;;;3.10;1.80;;;13.10;97.70;;;;;;5087986;28;20020;-73
2021/05/21 04:11:24;;;;;;;4.07;1.58;;;13.10;97.40;;;;;;5088455;28;20281;-73
2021/05/21 04:13:50;;;;;;;2.22;1.65;;;13.20;97.20;;;;;;5086617;28;20498;-73
2021/05/21 04:19:00;;;;;;;2.60;1.67;;;13.10;97.60;;;;;;5085894;28;20062;-73
2021/05/21 04:21:26;;;;;;;1.63;1.35;;;13.10;97.30;;;;;;5089163;28;20032;-73
2021/05/21 04:23:53;;;;;;;1.52;1.40;;;13.10;97.00;;;;;;5088238;28;20027;-73
2021/05/21 04:26:19;;;;;;;3.88;1.67;;;13.10;97.20;;;;;;5088748;28;20028;-74
2021/05/21 04:28:48;;;;;;;2.10;1.70;;;13.00;97.20;;;;;;5088774;28;20020;-73
2021/05/21 04:31:17;;;;;;;1.73;1.52;;;13.10;97.30;;;;;;5089239;28;20064;-73
2021/05/21 04:33:43;;;;;;;3.40;1.77;;;13.00;98.20;;;;;;5087398;28;20111;-72
2021/05/21 04:36:09;;;;;;;2.42;1.52;;;12.90;98.10;;;;;;5089033;28;20154;-73
2021/05/21 04:38:34;;;;;;;2.13;1.50;;;13.00;97.70;;;;;;5087874;28;20036;-72
2021/05/21 04:41:00;;;;;;;2.33;1.60;;;12.90;97.90;;;;;;5088027;28;20039;-72
2021/05/21 04:43:27;;;;;;;2.47;1.85;;;12.90;98.10;;;;;;5085753;28;20115;-74
2021/05/21 04:45:56;;;;;;;3.22;1.80;;;13.00;98.00;;;;;;5087043;28;20372;-73
2021/05/21 04:48:22;;;;;;;3.00;1.60;;;13.00;97.80;;;;;;5085076;28;20525;-76
2021/05/21 04:50:48;;;;;;;1.67;1.38;;;13.10;98.00;;;;;;5087961;28;20425;-73
2021/05/21 04:53:14;;;;;;;3.08;1.50;;;13.10;97.60;;;;;;5075608;28;20044;-74
2021/05/21 04:55:43;;;;;;;2.80;1.27;;;13.20;97.20;;;;;;5082055;28;20024;-74
2021/05/21 04:58:08;;;;;;;1.83;1.50;;;13.20;97.00;;;;;;5087637;28;20228;-73
2021/05/21 05:00:34;;;;;;;3.88;2.30;;;13.30;96.60;;;;;;5086695;28;20474;-77
2021/05/21 05:03:07;;;;;;;1.38;1.27;;;13.30;96.40;;;;;;5088501;28;20082;-75
2021/05/21 05:05:33;;;;;;;2.95;1.52;;;13.30;96.50;;;;;;5086435;28;20024;-75
2021/05/21 05:07:58;;;;;;;1.85;1.48;;;13.30;96.30;;;;;;5086977;28;20045;-73
2021/05/21 05:10:24;;;;;;;1.77;1.15;;;13.40;96.40;;;;;;5088609;28;20028;-77
2021/05/21 05:12:50;;;;;;;6.55;1.67;;;13.40;95.70;;;;;;5086582;28;20410;-74
2021/05/21 05:15:15;;;;;;;6.40;1.98;;;13.40;96.00;;;;;;5085872;28;20034;-73
2021/05/21 05:17:41;;;;;;;2.20;1.60;;;13.50;95.80;;;;;;5088628;28;20024;-77
2021/05/21 05:20:07;;;;;;;3.15;1.40;;;13.50;96.30;;;;;;5086202;28;20107;-77
2021/05/21 05:22:33;;;;;;;2.30;1.50;;;13.60;95.40;;;;;;5083369;28;20505;-83
2021/05/21 05:24:58;;;;;;;2.20;1.33;;;13.60;95.40;;;;;;5086152;28;20028;-88
2021/05/21 05:27:24;;;;;;;1.15;1.05;;;13.60;95.60;;;;;;5083018;28;20447;-73
2021/05/21 05:29:49;;;;;;;1.50;1.40;;;13.70;95.10;;;;;;5088074;28;20032;-74
2021/05/21 05:32:16;;;;;;;2.30;1.42;;;13.70;95.00;;;;;;5087519;28;20444;-72
2021/05/21 05:34:53;;;;;;;4.57;1.50;;;13.80;94.80;;;;;;5088015;28;20368;-73
2021/05/21 05:37:18;;;;;;;2.20;1.55;;;13.80;95.10;;;;;;5085779;28;20062;-73
2021/05/21 05:39:43;;;;;;;2.40;1.50;;;13.80;94.60;;;;;;5088420;28;20051;-73
2021/05/21 05:42:09;;;;;;;3.08;1.55;;;13.90;94.00;;;;;;5087750;28;20430;-73
2021/05/21 05:44:35;;;;;;;1.80;1.30;;;13.90;93.40;;;;;;5088314;28;20028;-73
2021/05/21 05:47:00;;;;;;;2.75;1.42;;;14.00;93.50;;;;;;5087847;28;20020;-73
2021/05/21 05:49:35;;;;;;;2.03;1.40;;;14.00;93.50;;;;;;5075837;28;20025;-73
2021/05/21 05:52:00;;;;;;;4.55;1.90;;;14.10;93.50;;;;;;5087053;28;20036;-73
2021/05/21 05:54:29;;;;;;;3.10;1.30;;;14.10;93.40;;;;;;5088087;28;20035;-74
2021/05/21 05:56:54;;;;;;;3.30;1.42;;;14.10;92.90;;;;;;5087529;28;20482;-73
2021/05/21 05:59:20;;;;;;;1.40;1.25;;;14.20;92.70;;;;;;5087661;28;20063;-73
2021/05/21 06:01:49;;;;;;;1.95;1.33;;;14.20;92.50;;;;;;5088078;28;20427;-73
2021/05/21 06:04:14;;;;;;;2.70;1.38;;;14.30;92.30;;;;;;5088981;28;20040;-73
2021/05/21 06:06:40;;;;;;;1.73;1.30;;;14.30;92.30;;;;;;5092167;28;20022;-73
2021/05/21 06:09:08;;;;;;;2.28;1.08;;;14.40;92.20;;;;;;5091819;28;20028;-73
2021/05/21 06:11:33;;;;;;;3.15;1.40;;;14.50;91.20;;;;;;5091832;28;20098;-72
2021/05/21 06:13:59;;;;;;;1.10;1.00;;;14.60;90.70;;;;;;5092123;28;20112;-73
2021/05/21 06:16:24;;;;;;;6.70;1.70;;;14.80;90.60;;;;;;5091646;28;20032;-72
2021/05/21 06:19:10;;;;;;;2.53;1.45;;;14.80;90.10;;;;;;5091415;28;20505;-72
2021/05/21 06:21:36;;;;;;;2.65;1.35;;;14.90;90.10;;;;;;5091628;28;20046;-73
2021/05/21 06:24:02;;;;;;;5.03;1.48;;;14.90;89.50;;;;;;5091642;28;20378;-73
2021/05/21 06:26:38;;;;;;;4.63;1.20;;;15.10;89.70;;;;;;5091157;28;20036;-72
2021/05/21 06:29:04;;;;;;;2.80;1.08;;;15.20;88.10;;;;;;5091440;28;20429;-72
2021/05/21 06:31:29;;;;;;;2.20;1.48;;;15.30;86.60;;;;;;5091369;28;20035;-73
2021/05/21 06:33:55;;;;;;;8.00;1.33;;;15.40;86.00;;;;;;5091930;28;20024;-72
2021/05/21 06:36:20;;;;;;;2.38;1.30;;;15.50;83.50;;;;;;5090749;28;20036;-73
2021/05/21 06:38:46;;;;;;;1.15;0.90;;;15.50;82.70;;;;;;5091541;28;20027;-72
2021/05/21 06:41:11;;;;;;;1.20;1.10;;;15.50;83.20;;;;;;5091184;28;20032;-73
2021/05/21 06:43:37;;;;;;;1.20;1.08;;;15.60;83.30;;;;;;5091408;28;20107;-73
2021/05/21 06:46:03;;;;;;;1.58;1.20;;;15.70;82.40;;;;;;5091194;28;20020;-73
2021/05/21 06:48:30;;;;;;;1.00;0.90;;;15.80;82.10;;;;;;5091047;28;20020;-73
2021/05/21 06:51:01;;;;;;;2.20;1.02;;;15.90;81.40;;;;;;5090433;28;20106;-73
2021/05/21 06:53:26;;;;;;;2.77;1.33;;;16.00;80.20;;;;;;5090900;28;20058;-73
2021/05/21 06:55:53;;;;;;;1.85;1.00;;;16.10;79.00;;;;;;5089687;28;20024;-72
2021/05/21 06:58:19;;;;;;;1.00;0.90;;;16.20;78.40;;;;;;5088808;28;20031;-73
2021/05/21 07:00:48;;;;;;;4.07;0.80;;;16.20;76.80;;;;;;5090950;28;20487;-73
2021/05/21 07:03:14;;;;;;;0.80;0.77;;;16.20;76.80;;;;;;5090593;28;20036;-73
2021/05/21 07:05:41;;;;;;;3.58;1.58;;;16.20;76.50;;;;;;5082700;28;20033;-72
2021/05/21 07:08:07;;;;;;;1.40;1.10;;;16.30;78.20;;;;;;5077385;28;20315;-73
2021/05/21 07:10:33;;;;;;;0.95;0.82;;;16.30;76.60;;;;;;5090996;28;20031;-73
2021/05/21 07:13:13;;;;;;;1.88;0.90;;;16.40;76.80;;;;;;5091005;28;20024;-73
2021/05/21 07:15:38;;;;;;;1.58;1.08;;;16.60;75.00;;;;;;5090206;28;20123;-72
2021/05/21 07:18:05;;;;;;;0.77;0.75;;;16.70;74.00;;;;;;5090620;28;20165;-73
2021/05/21 07:20:31;;;;;;;2.25;1.10;;;16.80;73.70;;;;;;5090411;28;20028;-73
2021/05/21 07:22:57;;;;;;;1.35;0.98;;;16.80;72.50;;;;;;5090961;28;20035;-73
2021/05/21 07:25:23;;;;;;;1.52;1.00;;;16.90;72.70;;;;;;5089427;28;20070;-73
2021/05/21 07:27:48;;;;;;;1.10;0.88;;;17.00;73.40;;;;;;5090183;28;20031;-73
2021/05/21 07:30:15;;;;;;;1.88;1.05;;;17.00;71.50;;;;;;5089622;28;20032;-73
2021/05/21 07:32:40;;;;;;;0.60;0.60;;;17.00;71.70;;;;;;5089735;28;20024;-73
2021/05/21 07:35:07;;;;;;;2.95;1.10;;;16.90;71.70;;;;;;5090432;28;20016;-73
2021/05/21 07:37:32;;;;;;;1.00;0.73;;;16.80;71.80;;;;;;5090144;28;20032;-73
2021/05/21 07:39:58;;;;;;;0.70;0.65;;;16.70;71.70;;;;;;5090344;28;20019;-73
2021/05/21 07:42:23;;;;;;;1.25;1.05;;;16.60;72.00;;;;;;5089632;28;20032;-72
2021/05/21 07:44:49;;;;;;;1.00;0.90;;;16.60;72.00;;;;;;5090713;28;20024;-73
2021/05/21 07:47:14;;;;;;;2.65;1.40;;;16.60;73.90;;;;;;5089282;28;20055;-72
2021/05/21 07:49:40;;;;;;;1.23;0.70;;;16.60;74.00;;;;;;5089231;28;20070;-73
2021/05/21 07:52:06;;;;;;;1.52;1.00;;;16.60;73.30;;;;;;5090518;28;20066;-73
2021/05/21 07:54:31;;;;;;;0.85;0.80;;;16.60;72.70;;;;;;5090112;28;20023;-73
2021/05/21 07:56:57;;;;;;;0.65;0.65;;;16.60;73.30;;;;;;5090164;28;20398;-73
2021/05/21 07:59:22;;;;;;;0.93;0.90;;;16.70;73.00;;;;;;5090034;28;20024;-73
2021/05/21 08:01:48;;;;;;;1.20;1.10;;;16.70;73.00;;;;;;5086613;28;20024;-72
2021/05/21 08:04:13;;;;;;;0.80;0.80;;;16.80;72.60;;;;;;5088738;28;20526;-73
2021/05/21 08:06:41;;;;;;;1.23;0.80;;;16.90;72.80;;;;;;5088153;28;20023;-72
2021/05/21 08:09:07;;;;;;;1.00;0.90;;;17.00;71.00;;;;;;5087611;28;20145;-74
2021/05/21 08:11:33;;;;;;;1.05;0.90;;;17.10;69.40;;;;;;5089560;28;20024;-72
2021/05/21 08:13:59;;;;;;;0.55;0.55;;;17.20;67.40;;;;;;5090033;28;20020;-74
2021/05/21 08:16:27;;;;;;;0.88;0.80;;;17.30;66.60;;;;;;5081165;28;20041;-73
2021/05/21 08:18:53;;;;;;;0.73;0.70;;;17.30;66.40;;;;;;5085758;28;20024;-74
2021/05/21 08:21:19;;;;;;;0.82;0.70;;;17.40;66.70;;;;;;5084789;28;20036;-73
2021/05/21 08:23:44;;;;;;;1.08;0.80;;;17.40;66.70;;;;;;5083500;28;20474;-73
2021/05/21 08:26:11;;;;;;;1.23;1.05;;;17.40;66.80;;;;;;5088770;28;20360;-73
2021/05/21 08:28:37;;;;;;;5.03;1.10;;;17.40;66.40;;;;;;5087821;28;20099;-73
2021/05/21 08:31:04;;;;;;;2.15;1.08;;;17.40;66.90;;;;;;5088917;28;20024;-73
2021/05/21 08:33:29;;;;;;;0.60;0.60;;;17.40;67.20;;;;;;5087947;28;20489;-73
2021/05/21 08:35:55;;;;;;;4.22;0.80;;;17.50;70.20;;;;;;5089791;28;20016;-73
2021/05/21 08:38:20;;;;;;;1.00;0.68;;;17.50;66.10;;;;;;5087861;28;20471;-73
2021/05/21 08:40:47;;;;;;;0.70;0.70;;;17.50;66.80;;;;;;5088508;28;20020;-73
2021/05/21 08:43:13;;;;;;;1.27;0.60;;;17.60;65.90;;;;;;5088315;28;20032;-74
2021/05/21 08:45:39;;;;;;;0.90;0.70;;;17.60;66.40;;;;;;5088906;28;20028;-73
2021/05/21 08:48:12;;;;;;;5.25;0.98;;;17.70;64.60;;;;;;5087194;28;20039;-73
2021/05/21 08:50:37;;;;;;;0.60;0.60;;;17.90;64.40;;;;;;5085075;28;20039;-73
2021/05/21 08:53:04;;;;;;;2.15;0.80;;;17.90;63.60;;;;;;5082553;28;20410;-73
2021/05/21 08:55:29;;;;;;;1.00;0.90;;;17.90;63.80;;;;;;5087820;28;20024;-72
2021/05/21 08:57:55;;;;;;;1.00;1.00;;;18.00;63.90;;;;;;5087757;28;20047;-72
2021/05/21 09:00:21;;;;;;;0.75;0.75;;;18.10;65.20;;;;;;5085501;28;20475;-72
2021/05/21 09:02:46;;;;;;;2.25;1.10;;;18.20;63.40;;;;;;5077695;28;20028;-73
2021/05/21 09:05:12;;;;;;;5.10;0.70;;;18.40;62.50;;;;;;5088356;28;20174;-72
2021/05/21 09:07:40;;;;;;;1.55;0.98;;;18.40;62.80;;;;;;5084423;28;20643;-72
2021/05/21 09:10:07;;;;;;;0.50;0.50;;;18.60;63.00;;;;;;5088100;28;20076;-72
2021/05/21 09:12:40;;;;;;;0.60;0.60;;;18.70;64.30;;;;;;5087558;28;20044;-73
2021/05/21 09:15:07;;;;;;;10.68;1.17;;;18.80;61.70;;;;;;5088786;28;20031;-73
2021/05/21 09:17:33;;;;;;;0.68;0.63;;;19.00;61.60;;;;;;5087481;28;20023;-72
2021/05/21 09:20:00;;;;;;;1.13;0.75;;;19.00;60.30;;;;;;5088451;28;20028;-73
2021/05/21 09:22:25;;;;;;;0.80;0.77;;;18.90;59.70;;;;;;5088077;28;20020;-73
2021/05/21 09:24:52;;;;;;;1.45;0.80;;;19.00;61.00;;;;;;5087836;28;20024;-74
2021/05/21 09:27:19;;;;;;;1.23;0.90;;;19.00;60.60;;;;;;5087018;28;20479;-74
2021/05/21 09:29:47;;;;;;;1.30;0.80;;;19.00;62.30;;;;;;5084896;28;20056;-75
2021/05/21 09:32:19;;;;;;;3.35;0.70;;;19.00;61.30;;;;;;5083831;28;20702;-75
2021/05/21 09:34:48;;;;;;;2.05;0.90;;;19.00;58.50;;;;;;5087640;28;20636;-75
2021/05/21 09:37:24;;;;;;;1.10;0.70;;;19.10;58.30;;;;;;5087898;28;20032;-76
2021/05/21 09:40:07;;;;;;;20.70;2.83;;;19.30;57.80;;;;;;5085302;28;20115;-75
2021/05/21 09:42:50;;;;;;;0.85;0.68;;;19.50;56.70;;;;;;5087796;28;20185;-75
2021/05/21 09:45:36;;;;;;;0.98;0.65;;;19.70;56.50;;;;;;5085890;28;20024;-76
2021/05/21 09:48:03;;;;;;;2.03;0.80;;;19.70;55.90;;;;;;5087763;28;20028;-75
2021/05/21 09:50:35;;;;;;;1.67;0.90;;;19.60;54.90;;;;;;5087451;28;20106;-75
2021/05/21 09:53:10;;;;;;;2.78;0.90;;;19.50;55.10;;;;;;5087522;28;20052;-76
2021/05/21 09:55:50;;;;;;;1.10;0.85;;;19.40;57.20;;;;;;5085843;28;20044;-74
2021/05/21 09:58:25;;;;;;;0.80;0.55;;;19.40;56.80;;;;;;5084012;28;20055;-74
2021/05/21 10:01:16;;;;;;;0.52;0.50;;;19.20;56.90;;;;;;5088379;28;20016;-73
2021/05/21 10:03:45;;;;;;;;;;;19.20;55.50;;;;;;5088680;28;20119;-73
2021/05/21 10:06:13;;;;;;;0.40;0.40;;;19.10;56.30;;;;;;5087407;28;19912;-75
2021/05/21 10:08:39;;;;;;;1.40;0.60;;;19.00;55.50;;;;;;5087203;28;20077;-75
2021/05/21 10:11:08;;;;;;;0.82;0.40;;;19.00;55.70;;;;;;5087060;28;20371;-74
2021/05/21 10:13:37;;;;;;;0.60;0.60;;;19.00;55.30;;;;;;5087570;28;20475;-73
2021/05/21 10:16:04;;;;;;;1.27;0.60;;;19.20;56.00;;;;;;5087035;28;20036;-73
2021/05/21 10:18:33;;;;;;;0.35;0.35;;;19.50;52.90;;;;;;5086927;28;20127;-74
2021/05/21 10:21:00;;;;;;;0.43;0.40;;;19.70;52.70;;;;;;5087402;28;20482;-73
2021/05/21 10:23:58;;;;;;;0.30;0.30;;;19.60;51.40;;;;;;5087102;28;20086;-73
2021/05/21 10:26:33;;;;;;;1.17;0.50;;;19.50;52.10;;;;;;5076964;28;20243;-74
2021/05/21 10:29:07;;;;;;;2.80;0.52;;;19.50;52.30;;;;;;5087193;28;20086;-74
2021/05/21 10:31:33;;;;;;;0.40;0.40;;;19.50;52.30;;;;;;5087011;28;20039;-74
2021/05/21 10:34:19;;;;;;;0.43;0.43;;;19.60;54.30;;;;;;5087082;28;20492;-73
2021/05/21 10:37:05;;;;;;;0.57;0.50;;;19.90;50.40;;;;;;5087257;28;20059;-71
2021/05/21 10:39:31;;;;;;;0.47;0.47;;;20.00;49.20;;;;;;5087662;28;20120;-74
2021/05/21 10:42:00;;;;;;;1.42;0.60;;;20.10;48.80;;;;;;5086552;28;20099;-73
2021/05/21 10:44:36;;;;;;;0.52;0.50;;;20.30;48.50;;;;;;5087232;28;20020;-74
2021/05/21 10:47:17;;;;;;;0.68;0.40;;;20.50;50.40;;;;;;5086707;28;20032;-74
2021/05/21 10:50:02;;;;;;;0.60;0.60;;;20.80;47.60;;;;;;5073991;28;20017;-73
2021/05/21 10:52:47;;;;;;;0.75;0.57;;;21.00;46.40;;;;;;5087147;28;20036;-74
2021/05/21 10:55:13;;;;;;;2.45;0.38;;;21.10;47.10;;;;;;5090970;28;20023;-74
2021/05/21 10:57:39;;;;;;;0.40;0.40;;;21.20;48.20;;;;;;5090427;28;20032;-74
2021/05/21 11:00:05;;;;;;;0.60;0.50;;;21.20;46.40;;;;;;5090744;28;20020;-74
2021/05/21 11:02:43;;;;;;;0.73;0.47;;;21.20;47.10;;;;;;5090828;28;20028;-73
2021/05/21 11:05:34;;;;;;;0.73;0.50;;;21.20;47.70;;;;;;5088561;28;20021;-71
2021/05/21 11:08:02;;;;;;;0.90;0.63;;;21.00;48.20;;;;;;5090359;28;20024;-71
2021/05/21 11:10:33;;;;;;;1.35;0.55;;;21.10;48.10;;;;;;5089303;28;20402;-74
2021/05/21 11:13:07;;;;;;;1.30;0.80;;;21.10;47.60;;;;;;5091246;28;20024;-74
2021/05/21 11:15:41;;;;;;;2.17;0.85;;;21.40;47.30;;;;;;5083055;28;20032;-74
2021/05/21 11:18:22;;;;;;;0.70;0.70;;;21.90;45.60;;;;;;5090875;28;20047;-71
2021/05/21 11:21:08;;;;;;;0.45;0.45;;;22.10;46.00;;;;;;5090624;28;20043;-75
2021/05/21 11:23:46;;;;;;;1.52;0.50;;;22.00;47.50;;;;;;5090298;28;20055;-74
2021/05/21 11:26:13;;;;;;;1.10;0.80;;;22.20;45.60;;;;;;5077190;28;20032;-74
2021/05/21 11:28:43;;;;;;;0.55;0.55;;;22.50;46.20;;;;;;5090411;28;20032;-74
2021/05/21 11:31:10;;;;;;;3.97;0.50;;;22.60;43.70;;;;;;5090279;28;20039;-74
2021/05/21 11:33:36;;;;;;;1.45;0.55;;;22.30;43.70;;;;;;5089460;28;20474;-73
2021/05/21 11:36:06;;;;;;;0.50;0.50;;;22.10;45.20;;;;;;5090028;28;20690;-72
2021/05/21 11:38:31;;;;;;;0.60;0.60;;;22.40;45.40;;;;;;5090024;28;20736;-73
2021/05/21 11:40:57;;;;;;;0.28;0.25;;;22.50;45.70;;;;;;5090915;28;20024;-73
2021/05/21 11:43:23;;;;;;;5.15;0.73;;;22.50;46.20;;;;;;5090240;28;20028;-74
2021/05/21 11:45:51;;;;;;;0.50;0.50;;;22.20;45.70;;;;;;5089304;28;20032;-74
2021/05/21 11:48:33;;;;;;;0.47;0.47;;;22.00;46.60;;;;;;5087802;28;20111;-73
2021/05/21 11:51:01;;;;;;;1.75;0.47;;;22.40;45.70;;;;;;5083491;28;20032;-74
2021/05/21 11:53:26;;;;;;;0.63;0.63;;;22.60;45.10;;;;;;5089875;28;20047;-71
2021/05/21 11:55:52;;;;;;;1.00;0.60;;;23.20;45.50;;;;;;5087672;28;20024;-74
2021/05/21 11:58:37;;;;;;;1.00;0.52;;;24.30;41.60;;;;;;5088036;28;20032;-74
2021/05/21 12:01:03;;;;;;;0.50;0.40;;;24.50;40.50;;;;;;5088920;28;20475;-74
2021/05/21 12:03:39;;;;;;;1.50;0.70;;;24.70;39.90;;;;;;5089104;28;20032;-75
2021/05/21 12:06:06;;;;;;;0.35;0.35;;;24.90;39.30;;;;;;5090426;28;20039;-72
2021/05/21 12:08:32;;;;;;;0.57;0.57;;;24.70;38.60;;;;;;5089597;28;20028;-72
2021/05/21 12:10:59;;;;;;;2.20;0.40;;;24.90;38.70;;;;;;5089550;28;20062;-72
2021/05/21 12:13:31;;;;;;;0.90;0.45;;;25.30;39.10;;;;;;5090118;28;20050;-72
2021/05/21 12:16:14;;;;;;;2.42;1.23;;;25.70;39.40;;;;;;5089946;28;20027;-72
2021/05/21 12:18:40;;;;;;;0.43;0.43;;;26.70;38.40;;;;;;5081627;28;20119;-74
2021/05/21 12:21:07;;;;;;;1.05;0.32;;;27.20;35.30;;;;;;5087084;28;20031;-73
2021/05/21 12:23:38;;;;;;;0.57;0.45;;;26.50;34.50;;;;;;5088698;28;20028;-72
2021/05/21 12:26:06;;;;;;;3.00;0.60;;;25.70;36.60;;;;;;5089480;28;20032;-74
2021/05/21 12:28:33;;;;;;;0.90;0.40;;;24.70;38.10;;;;;;5089244;28;20479;-73
2021/05/21 12:31:03;;;;;;;0.32;0.32;;;24.40;39.70;;;;;;5087395;28;20024;-73
2021/05/21 12:33:34;;;;;;;0.63;0.50;;;24.60;39.90;;;;;;5087764;28;20031;-73
2021/05/21 12:36:06;;;;;;;0.60;0.47;;;25.20;37.40;;;;;;5088454;28;20036;-74
2021/05/21 12:38:32;;;;;;;0.57;0.40;;;26.40;37.00;;;;;;5089022;28;20032;-75
2021/05/21 12:40:58;;;;;;;4.97;0.82;;;26.80;38.30;;;;;;5087763;28;20284;-75
2021/05/21 12:43:29;;;;;;;0.73;0.50;;;27.10;34.60;;;;;;5088619;28;20094;-74
2021/05/21 12:46:03;;;;;;;2.83;0.70;;;27.50;34.20;;;;;;5087641;28;20032;-78
2021/05/21 12:48:33;;;;;;;0.40;0.32;;;28.00;32.80;;;;;;5089219;28;20108;-76
2021/05/21 12:51:19;;;;;;;0.55;0.50;;;28.20;32.90;;;;;;5087833;28;20101;-79
2021/05/21 12:53:46;;;;;;;2.55;0.50;;;28.40;33.50;;;;;;5080244;28;20024;-74